sensor_id;sensor_type;location;lat;lon;timestamp;P1;durP1;ratioP1;P2;durP2;ratioP2
29954;SDS011;16812;51.168;6.840;2022-12-18T00:00:44;10.83;;;5.53;;
29954;SDS011;16812;51.168;6.840;2022-12-18T00:03:11;12.90;;;6.43;;
29954;SDS011;16812;51.168;6.840;2022-12-18T00:05:45;15.10;;;9.30;;
29954;SDS011;16812;51.168;6.840;2022-12-18T00:08:12;19.07;;;8.90;;
29954;SDS011;16812;51.168;6.840;2022-12-18T00:10:39;16.67;;;8.40;;
29954;SDS011;16812;51.168;6.840;2022-12-18T00:13:06;20.73;;;7.13;;
29954;SDS011;16812;51.168;6.840;2022-12-18T00:15:35;17.00;;;7.87;;
29954;SDS011;16812;51.168;6.840;2022-12-18T00:18:04;18.50;;;8.90;;
29954;SDS011;16812;51.168;6.840;2022-12-18T00:20:35;18.13;;;9.40;;
29954;SDS011;16812;51.168;6.840;2022-12-18T00:23:02;19.30;;;9.57;;
29954;SDS011;16812;51.168;6.840;2022-12-18T00:25:29;18.73;;;8.90;;
29954;SDS011;16812;51.168;6.840;2022-12-18T00:27:56;16.60;;;8.33;;
29954;SDS011;16812;51.168;6.840;2022-12-18T00:30:24;22.60;;;7.50;;
29954;SDS011;16812;51.168;6.840;2022-12-18T00:32:51;17.47;;;9.07;;
29954;SDS011;16812;51.168;6.840;2022-12-18T00:35:19;15.90;;;8.20;;
29954;SDS011;16812;51.168;6.840;2022-12-18T00:37:47;22.90;;;9.03;;
29954;SDS011;16812;51.168;6.840;2022-12-18T00:40:14;12.97;;;8.30;;
29954;SDS011;16812;51.168;6.840;2022-12-18T00:42:41;14.23;;;8.90;;
29954;SDS011;16812;51.168;6.840;2022-12-18T00:45:08;17.63;;;9.20;;
29954;SDS011;16812;51.168;6.840;2022-12-18T00:47:38;20.60;;;8.90;;
29954;SDS011;16812;51.168;6.840;2022-12-18T00:50:06;16.00;;;7.90;;
29954;SDS011;16812;51.168;6.840;2022-12-18T00:52:35;17.00;;;8.17;;
29954;SDS011;16812;51.168;6.840;2022-12-18T00:55:02;16.20;;;8.87;;
29954;SDS011;16812;51.168;6.840;2022-12-18T00:57:31;15.90;;;8.97;;
29954;SDS011;16812;51.168;6.840;2022-12-18T00:59:59;16.80;;;8.07;;
29954;SDS011;16812;51.168;6.840;2022-12-18T01:02:26;11.73;;;7.60;;
29954;SDS011;16812;51.168;6.840;2022-12-18T01:04:54;15.30;;;8.60;;
29954;SDS011;16812;51.168;6.840;2022-12-18T01:07:21;16.20;;;9.63;;
29954;SDS011;16812;51.168;6.840;2022-12-18T01:09:49;17.50;;;8.40;;
29954;SDS011;16812;51.168;6.840;2022-12-18T01:12:16;21.00;;;8.20;;
29954;SDS011;16812;51.168;6.840;2022-12-18T01:14:43;19.67;;;8.77;;
29954;SDS011;16812;51.168;6.840;2022-12-18T01:17:10;13.77;;;8.67;;
29954;SDS011;16812;51.168;6.840;2022-12-18T01:19:38;14.93;;;8.10;;
29954;SDS011;16812;51.168;6.840;2022-12-18T01:22:07;15.00;;;8.60;;
29954;SDS011;16812;51.168;6.840;2022-12-18T01:24:34;20.63;;;9.03;;
29954;SDS011;16812;51.168;6.840;2022-12-18T01:27:02;15.40;;;8.77;;
29954;SDS011;16812;51.168;6.840;2022-12-18T01:29:29;16.00;;;8.57;;
29954;SDS011;16812;51.168;6.840;2022-12-18T01:31:57;15.30;;;8.17;;
29954;SDS011;16812;51.168;6.840;2022-12-18T01:34:24;13.83;;;8.03;;
29954;SDS011;16812;51.168;6.840;2022-12-18T01:36:51;12.80;;;8.03;;
29954;SDS011;16812;51.168;6.840;2022-12-18T01:39:18;21.20;;;8.77;;
29954;SDS011;16812;51.168;6.840;2022-12-18T01:41:46;23.17;;;10.20;;
29954;SDS011;16812;51.168;6.840;2022-12-18T01:47:01;16.03;;;7.93;;
29954;SDS011;16812;51.168;6.840;2022-12-18T01:49:28;15.27;;;7.90;;
29954;SDS011;16812;51.168;6.840;2022-12-18T01:51:55;15.77;;;8.80;;
29954;SDS011;16812;51.168;6.840;2022-12-18T01:54:22;17.30;;;9.30;;
29954;SDS011;16812;51.168;6.840;2022-12-18T01:56:50;20.43;;;9.50;;
29954;SDS011;16812;51.168;6.840;2022-12-18T01:59:17;22.17;;;10.30;;
29954;SDS011;16812;51.168;6.840;2022-12-18T02:01:44;19.40;;;8.73;;
29954;SDS011;16812;51.168;6.840;2022-12-18T02:04:20;18.50;;;9.53;;
29954;SDS011;16812;51.168;6.840;2022-12-18T02:06:48;15.83;;;9.17;;
29954;SDS011;16812;51.168;6.840;2022-12-18T02:09:18;15.13;;;7.60;;
29954;SDS011;16812;51.168;6.840;2022-12-18T02:11:49;17.70;;;8.73;;
29954;SDS011;16812;51.168;6.840;2022-12-18T02:14:18;21.60;;;10.30;;
29954;SDS011;16812;51.168;6.840;2022-12-18T02:16:51;14.37;;;8.33;;
29954;SDS011;16812;51.168;6.840;2022-12-18T02:19:27;19.40;;;7.87;;
29954;SDS011;16812;51.168;6.840;2022-12-18T02:22:01;16.17;;;8.90;;
29954;SDS011;16812;51.168;6.840;2022-12-18T02:24:33;15.90;;;8.90;;
29954;SDS011;16812;51.168;6.840;2022-12-18T02:27:04;16.60;;;8.63;;
29954;SDS011;16812;51.168;6.840;2022-12-18T02:29:33;13.50;;;7.37;;
29954;SDS011;16812;51.168;6.840;2022-12-18T02:32:01;14.80;;;8.27;;
29954;SDS011;16812;51.168;6.840;2022-12-18T02:34:30;14.87;;;8.50;;
29954;SDS011;16812;51.168;6.840;2022-12-18T02:36:59;16.73;;;8.63;;
29954;SDS011;16812;51.168;6.840;2022-12-18T02:39:28;14.73;;;7.50;;
29954;SDS011;16812;51.168;6.840;2022-12-18T02:42:01;14.07;;;7.70;;
29954;SDS011;16812;51.168;6.840;2022-12-18T02:44:30;18.17;;;9.27;;
29954;SDS011;16812;51.168;6.840;2022-12-18T02:46:57;18.90;;;8.83;;
29954;SDS011;16812;51.168;6.840;2022-12-18T02:49:28;14.67;;;9.00;;
29954;SDS011;16812;51.168;6.840;2022-12-18T02:52:01;11.90;;;7.33;;
29954;SDS011;16812;51.168;6.840;2022-12-18T02:54:36;22.90;;;8.83;;
29954;SDS011;16812;51.168;6.840;2022-12-18T02:57:09;15.13;;;7.90;;
29954;SDS011;16812;51.168;6.840;2022-12-18T02:59:43;16.33;;;7.33;;
29954;SDS011;16812;51.168;6.840;2022-12-18T03:02:16;16.50;;;8.57;;
29954;SDS011;16812;51.168;6.840;2022-12-18T03:04:46;10.33;;;7.00;;
29954;SDS011;16812;51.168;6.840;2022-12-18T03:07:17;15.10;;;7.53;;
29954;SDS011;16812;51.168;6.840;2022-12-18T03:09:48;10.10;;;6.13;;
29954;SDS011;16812;51.168;6.840;2022-12-18T03:12:17;11.90;;;6.90;;
29954;SDS011;16812;51.168;6.840;2022-12-18T03:14:46;13.03;;;7.40;;
29954;SDS011;16812;51.168;6.840;2022-12-18T03:17:17;14.97;;;7.67;;
29954;SDS011;16812;51.168;6.840;2022-12-18T03:19:46;13.97;;;7.97;;
29954;SDS011;16812;51.168;6.840;2022-12-18T03:22:14;16.37;;;8.90;;
29954;SDS011;16812;51.168;6.840;2022-12-18T03:24:49;16.17;;;7.80;;
29954;SDS011;16812;51.168;6.840;2022-12-18T03:27:17;15.50;;;7.33;;
29954;SDS011;16812;51.168;6.840;2022-12-18T03:29:48;12.80;;;6.40;;
29954;SDS011;16812;51.168;6.840;2022-12-18T03:32:20;17.10;;;8.40;;
29954;SDS011;16812;51.168;6.840;2022-12-18T03:34:50;16.03;;;7.97;;
29954;SDS011;16812;51.168;6.840;2022-12-18T03:37:21;15.57;;;7.57;;
29954;SDS011;16812;51.168;6.840;2022-12-18T03:39:50;20.97;;;9.27;;
29954;SDS011;16812;51.168;6.840;2022-12-18T03:42:20;21.30;;;8.07;;
29954;SDS011;16812;51.168;6.840;2022-12-18T03:44:54;15.80;;;7.67;;
29954;SDS011;16812;51.168;6.840;2022-12-18T03:47:26;25.03;;;10.37;;
29954;SDS011;16812;51.168;6.840;2022-12-18T03:49:57;14.33;;;7.10;;
29954;SDS011;16812;51.168;6.840;2022-12-18T03:52:34;13.40;;;7.63;;
29954;SDS011;16812;51.168;6.840;2022-12-18T03:55:03;14.57;;;8.23;;
29954;SDS011;16812;51.168;6.840;2022-12-18T03:57:32;11.43;;;6.80;;
29954;SDS011;16812;51.168;6.840;2022-12-18T04:00:05;14.13;;;8.30;;
29954;SDS011;16812;51.168;6.840;2022-12-18T04:02:40;13.23;;;6.83;;
29954;SDS011;16812;51.168;6.840;2022-12-18T04:05:09;16.07;;;8.20;;
29954;SDS011;16812;51.168;6.840;2022-12-18T04:07:39;13.30;;;7.70;;
29954;SDS011;16812;51.168;6.840;2022-12-18T04:10:08;19.10;;;8.07;;
29954;SDS011;16812;51.168;6.840;2022-12-18T04:12:36;15.73;;;7.70;;
29954;SDS011;16812;51.168;6.840;2022-12-18T04:15:07;19.40;;;8.53;;
29954;SDS011;16812;51.168;6.840;2022-12-18T04:17:34;13.50;;;7.90;;
29954;SDS011;16812;51.168;6.840;2022-12-18T04:20:03;14.60;;;7.43;;
29954;SDS011;16812;51.168;6.840;2022-12-18T04:22:30;11.73;;;8.10;;
29954;SDS011;16812;51.168;6.840;2022-12-18T04:24:58;16.20;;;8.80;;
29954;SDS011;16812;51.168;6.840;2022-12-18T04:27:33;15.13;;;8.30;;
29954;SDS011;16812;51.168;6.840;2022-12-18T04:30:01;17.80;;;8.50;;
29954;SDS011;16812;51.168;6.840;2022-12-18T04:32:30;21.17;;;7.93;;
29954;SDS011;16812;51.168;6.840;2022-12-18T04:34:58;21.43;;;8.03;;
29954;SDS011;16812;51.168;6.840;2022-12-18T04:37:26;12.57;;;7.93;;
29954;SDS011;16812;51.168;6.840;2022-12-18T04:39:53;16.57;;;7.40;;
29954;SDS011;16812;51.168;6.840;2022-12-18T04:42:29;12.97;;;6.73;;
29954;SDS011;16812;51.168;6.840;2022-12-18T04:44:56;16.47;;;6.80;;
29954;SDS011;16812;51.168;6.840;2022-12-18T04:47:23;12.37;;;7.33;;
29954;SDS011;16812;51.168;6.840;2022-12-18T04:49:52;14.17;;;8.27;;
29954;SDS011;16812;51.168;6.840;2022-12-18T04:52:19;12.57;;;7.63;;
29954;SDS011;16812;51.168;6.840;2022-12-18T04:54:50;19.13;;;9.17;;
29954;SDS011;16812;51.168;6.840;2022-12-18T04:57:17;14.63;;;7.80;;
29954;SDS011;16812;51.168;6.840;2022-12-18T04:59:44;19.50;;;7.50;;
29954;SDS011;16812;51.168;6.840;2022-12-18T05:02:12;10.80;;;6.20;;
29954;SDS011;16812;51.168;6.840;2022-12-18T05:04:39;24.20;;;7.03;;
29954;SDS011;16812;51.168;6.840;2022-12-18T05:07:07;13.80;;;7.20;;
29954;SDS011;16812;51.168;6.840;2022-12-18T05:09:35;19.73;;;8.73;;
29954;SDS011;16812;51.168;6.840;2022-12-18T05:12:02;11.27;;;6.77;;
29954;SDS011;16812;51.168;6.840;2022-12-18T05:14:29;13.50;;;7.43;;
29954;SDS011;16812;51.168;6.840;2022-12-18T05:16:56;15.13;;;8.00;;
29954;SDS011;16812;51.168;6.840;2022-12-18T05:19:26;17.13;;;6.73;;
29954;SDS011;16812;51.168;6.840;2022-12-18T05:21:53;13.33;;;6.43;;
29954;SDS011;16812;51.168;6.840;2022-12-18T05:24:22;19.30;;;8.97;;
29954;SDS011;16812;51.168;6.840;2022-12-18T05:26:49;17.17;;;9.33;;
29954;SDS011;16812;51.168;6.840;2022-12-18T05:29:16;14.57;;;6.20;;
29954;SDS011;16812;51.168;6.840;2022-12-18T05:31:43;14.50;;;7.27;;
29954;SDS011;16812;51.168;6.840;2022-12-18T05:34:10;16.37;;;7.77;;
29954;SDS011;16812;51.168;6.840;2022-12-18T05:36:38;16.73;;;9.00;;
29954;SDS011;16812;51.168;6.840;2022-12-18T05:39:05;13.13;;;7.20;;
29954;SDS011;16812;51.168;6.840;2022-12-18T05:41:33;17.33;;;8.67;;
29954;SDS011;16812;51.168;6.840;2022-12-18T05:44:00;14.10;;;5.97;;
29954;SDS011;16812;51.168;6.840;2022-12-18T05:46:28;18.27;;;8.60;;
29954;SDS011;16812;51.168;6.840;2022-12-18T05:48:55;15.80;;;8.67;;
29954;SDS011;16812;51.168;6.840;2022-12-18T05:51:25;15.67;;;7.33;;
29954;SDS011;16812;51.168;6.840;2022-12-18T05:53:52;10.47;;;6.83;;
29954;SDS011;16812;51.168;6.840;2022-12-18T05:56:20;20.83;;;7.83;;
29954;SDS011;16812;51.168;6.840;2022-12-18T05:58:50;11.23;;;6.57;;
29954;SDS011;16812;51.168;6.840;2022-12-18T06:01:18;13.50;;;7.13;;
29954;SDS011;16812;51.168;6.840;2022-12-18T06:03:46;12.43;;;6.63;;
29954;SDS011;16812;51.168;6.840;2022-12-18T06:06:14;12.80;;;7.43;;
29954;SDS011;16812;51.168;6.840;2022-12-18T06:08:41;13.27;;;7.30;;
29954;SDS011;16812;51.168;6.840;2022-12-18T06:11:12;14.77;;;7.70;;
29954;SDS011;16812;51.168;6.840;2022-12-18T06:13:39;16.77;;;7.60;;
29954;SDS011;16812;51.168;6.840;2022-12-18T06:16:08;14.87;;;8.37;;
29954;SDS011;16812;51.168;6.840;2022-12-18T06:18:35;13.47;;;8.33;;
29954;SDS011;16812;51.168;6.840;2022-12-18T06:21:03;16.80;;;7.73;;
29954;SDS011;16812;51.168;6.840;2022-12-18T06:23:30;14.13;;;6.80;;
29954;SDS011;16812;51.168;6.840;2022-12-18T06:25:57;15.63;;;7.50;;
29954;SDS011;16812;51.168;6.840;2022-12-18T06:28:24;18.37;;;8.30;;
29954;SDS011;16812;51.168;6.840;2022-12-18T06:30:51;10.87;;;7.27;;
29954;SDS011;16812;51.168;6.840;2022-12-18T06:33:20;18.57;;;7.67;;
29954;SDS011;16812;51.168;6.840;2022-12-18T06:35:47;13.13;;;8.40;;
29954;SDS011;16812;51.168;6.840;2022-12-18T06:38:14;14.67;;;7.50;;
29954;SDS011;16812;51.168;6.840;2022-12-18T06:40:41;11.47;;;7.40;;
29954;SDS011;16812;51.168;6.840;2022-12-18T06:43:08;16.37;;;8.70;;
29954;SDS011;16812;51.168;6.840;2022-12-18T06:45:35;18.13;;;8.33;;
29954;SDS011;16812;51.168;6.840;2022-12-18T06:48:02;10.00;;;4.40;;
29954;SDS011;16812;51.168;6.840;2022-12-18T06:50:31;19.33;;;8.70;;
29954;SDS011;16812;51.168;6.840;2022-12-18T06:52:58;13.00;;;8.37;;
29954;SDS011;16812;51.168;6.840;2022-12-18T06:55:26;14.73;;;8.50;;
29954;SDS011;16812;51.168;6.840;2022-12-18T06:57:53;13.00;;;6.60;;
29954;SDS011;16812;51.168;6.840;2022-12-18T07:00:20;13.30;;;7.50;;
29954;SDS011;16812;51.168;6.840;2022-12-18T07:02:47;12.33;;;6.47;;
29954;SDS011;16812;51.168;6.840;2022-12-18T07:05:14;16.50;;;7.80;;
29954;SDS011;16812;51.168;6.840;2022-12-18T07:07:43;12.23;;;7.40;;
29954;SDS011;16812;51.168;6.840;2022-12-18T07:10:10;15.40;;;8.57;;
29954;SDS011;16812;51.168;6.840;2022-12-18T07:12:37;13.50;;;8.23;;
29954;SDS011;16812;51.168;6.840;2022-12-18T07:15:05;15.27;;;8.00;;
29954;SDS011;16812;51.168;6.840;2022-12-18T07:17:32;13.93;;;8.53;;
29954;SDS011;16812;51.168;6.840;2022-12-18T07:19:59;13.40;;;8.13;;
29954;SDS011;16812;51.168;6.840;2022-12-18T07:22:26;21.13;;;6.97;;
29954;SDS011;16812;51.168;6.840;2022-12-18T07:24:55;17.83;;;7.20;;
29954;SDS011;16812;51.168;6.840;2022-12-18T07:27:22;20.90;;;9.40;;
29954;SDS011;16812;51.168;6.840;2022-12-18T07:29:49;15.70;;;8.07;;
29954;SDS011;16812;51.168;6.840;2022-12-18T07:32:16;10.07;;;5.67;;
29954;SDS011;16812;51.168;6.840;2022-12-18T07:34:44;17.30;;;7.90;;
29954;SDS011;16812;51.168;6.840;2022-12-18T07:37:12;20.27;;;6.37;;
29954;SDS011;16812;51.168;6.840;2022-12-18T07:39:40;14.90;;;7.80;;
29954;SDS011;16812;51.168;6.840;2022-12-18T07:42:08;21.07;;;7.07;;
29954;SDS011;16812;51.168;6.840;2022-12-18T07:44:38;10.03;;;6.23;;
29954;SDS011;16812;51.168;6.840;2022-12-18T07:47:05;16.70;;;7.80;;
29954;SDS011;16812;51.168;6.840;2022-12-18T07:49:37;11.80;;;6.00;;
29954;SDS011;16812;51.168;6.840;2022-12-18T07:52:04;13.17;;;7.70;;
29954;SDS011;16812;51.168;6.840;2022-12-18T07:54:31;16.17;;;7.33;;
29954;SDS011;16812;51.168;6.840;2022-12-18T07:56:59;9.20;;;6.00;;
29954;SDS011;16812;51.168;6.840;2022-12-18T07:59:27;20.17;;;9.27;;
29954;SDS011;16812;51.168;6.840;2022-12-18T08:01:54;12.83;;;6.30;;
29954;SDS011;16812;51.168;6.840;2022-12-18T08:04:22;12.77;;;7.20;;
29954;SDS011;16812;51.168;6.840;2022-12-18T08:06:50;22.60;;;10.33;;
29954;SDS011;16812;51.168;6.840;2022-12-18T08:09:17;18.60;;;8.90;;
29954;SDS011;16812;51.168;6.840;2022-12-18T08:11:44;16.80;;;8.10;;
29954;SDS011;16812;51.168;6.840;2022-12-18T08:14:11;13.63;;;6.63;;
29954;SDS011;16812;51.168;6.840;2022-12-18T08:16:40;19.10;;;9.10;;
29954;SDS011;16812;51.168;6.840;2022-12-18T08:19:07;16.73;;;7.77;;
29954;SDS011;16812;51.168;6.840;2022-12-18T08:21:34;14.93;;;8.00;;
29954;SDS011;16812;51.168;6.840;2022-12-18T08:24:01;16.30;;;8.33;;
29954;SDS011;16812;51.168;6.840;2022-12-18T08:26:29;11.50;;;7.37;;
29954;SDS011;16812;51.168;6.840;2022-12-18T08:28:57;16.67;;;7.73;;
29954;SDS011;16812;51.168;6.840;2022-12-18T08:31:24;12.53;;;8.37;;
29954;SDS011;16812;51.168;6.840;2022-12-18T08:33:53;10.90;;;7.23;;
29954;SDS011;16812;51.168;6.840;2022-12-18T08:36:22;12.50;;;6.33;;
29954;SDS011;16812;51.168;6.840;2022-12-18T08:38:50;15.57;;;8.97;;
29954;SDS011;16812;51.168;6.840;2022-12-18T08:41:18;15.57;;;8.80;;
29954;SDS011;16812;51.168;6.840;2022-12-18T08:43:45;16.67;;;9.13;;
29954;SDS011;16812;51.168;6.840;2022-12-18T08:46:15;16.43;;;8.37;;
29954;SDS011;16812;51.168;6.840;2022-12-18T08:48:43;17.30;;;9.07;;
29954;SDS011;16812;51.168;6.840;2022-12-18T08:51:11;15.33;;;8.57;;
29954;SDS011;16812;51.168;6.840;2022-12-18T08:53:38;17.93;;;8.33;;
29954;SDS011;16812;51.168;6.840;2022-12-18T08:56:07;13.60;;;7.77;;
29954;SDS011;16812;51.168;6.840;2022-12-18T08:58:34;12.43;;;7.43;;
29954;SDS011;16812;51.168;6.840;2022-12-18T09:01:01;11.33;;;7.10;;
29954;SDS011;16812;51.168;6.840;2022-12-18T09:03:29;17.23;;;8.80;;
29954;SDS011;16812;51.168;6.840;2022-12-18T09:05:56;9.13;;;6.77;;
29954;SDS011;16812;51.168;6.840;2022-12-18T09:08:25;17.10;;;7.30;;
29954;SDS011;16812;51.168;6.840;2022-12-18T09:10:52;12.63;;;7.57;;
29954;SDS011;16812;51.168;6.840;2022-12-18T09:13:19;13.93;;;7.10;;
29954;SDS011;16812;51.168;6.840;2022-12-18T09:15:47;12.60;;;5.87;;
29954;SDS011;16812;51.168;6.840;2022-12-18T09:18:15;25.90;;;8.60;;
29954;SDS011;16812;51.168;6.840;2022-12-18T09:20:42;10.13;;;7.60;;
29954;SDS011;16812;51.168;6.840;2022-12-18T09:23:09;15.07;;;8.67;;
29954;SDS011;16812;51.168;6.840;2022-12-18T09:25:38;13.50;;;8.40;;
29954;SDS011;16812;51.168;6.840;2022-12-18T09:28:05;15.37;;;9.30;;
29954;SDS011;16812;51.168;6.840;2022-12-18T09:30:33;12.70;;;6.97;;
29954;SDS011;16812;51.168;6.840;2022-12-18T09:33:00;12.73;;;8.93;;
29954;SDS011;16812;51.168;6.840;2022-12-18T09:35:28;19.40;;;9.13;;
29954;SDS011;16812;51.168;6.840;2022-12-18T09:37:55;9.57;;;6.67;;
29954;SDS011;16812;51.168;6.840;2022-12-18T09:40:22;13.73;;;7.87;;
29954;SDS011;16812;51.168;6.840;2022-12-18T09:42:53;15.63;;;7.73;;
29954;SDS011;16812;51.168;6.840;2022-12-18T09:45:21;14.93;;;7.73;;
29954;SDS011;16812;51.168;6.840;2022-12-18T09:47:48;9.73;;;6.23;;
29954;SDS011;16812;51.168;6.840;2022-12-18T09:50:19;15.27;;;5.77;;
29954;SDS011;16812;51.168;6.840;2022-12-18T09:52:48;18.47;;;7.80;;
29954;SDS011;16812;51.168;6.840;2022-12-18T09:55:17;13.83;;;7.90;;
29954;SDS011;16812;51.168;6.840;2022-12-18T09:57:49;14.33;;;7.13;;
29954;SDS011;16812;51.168;6.840;2022-12-18T10:00:20;12.93;;;5.80;;
29954;SDS011;16812;51.168;6.840;2022-12-18T10:02:47;12.00;;;7.20;;
29954;SDS011;16812;51.168;6.840;2022-12-18T10:05:17;8.30;;;5.20;;
29954;SDS011;16812;51.168;6.840;2022-12-18T10:07:50;14.10;;;7.40;;
29954;SDS011;16812;51.168;6.840;2022-12-18T10:10:27;17.80;;;9.23;;
29954;SDS011;16812;51.168;6.840;2022-12-18T10:12:58;14.57;;;7.90;;
29954;SDS011;16812;51.168;6.840;2022-12-18T10:15:32;15.63;;;7.67;;
29954;SDS011;16812;51.168;6.840;2022-12-18T10:18:03;13.17;;;7.37;;
29954;SDS011;16812;51.168;6.840;2022-12-18T10:20:35;11.43;;;6.30;;
29954;SDS011;16812;51.168;6.840;2022-12-18T10:23:08;8.60;;;5.43;;
29954;SDS011;16812;51.168;6.840;2022-12-18T10:25:40;12.20;;;7.30;;
29954;SDS011;16812;51.168;6.840;2022-12-18T10:28:10;15.10;;;7.73;;
29954;SDS011;16812;51.168;6.840;2022-12-18T10:30:39;16.20;;;8.67;;
29954;SDS011;16812;51.168;6.840;2022-12-18T10:33:08;11.67;;;6.33;;
29954;SDS011;16812;51.168;6.840;2022-12-18T10:35:37;13.73;;;8.93;;
29954;SDS011;16812;51.168;6.840;2022-12-18T10:38:20;13.77;;;6.80;;
29954;SDS011;16812;51.168;6.840;2022-12-18T10:40:48;14.50;;;8.27;;
29954;SDS011;16812;51.168;6.840;2022-12-18T10:43:15;12.07;;;5.83;;
29954;SDS011;16812;51.168;6.840;2022-12-18T10:45:57;17.93;;;8.73;;
29954;SDS011;16812;51.168;6.840;2022-12-18T10:48:25;15.20;;;7.07;;
29954;SDS011;16812;51.168;6.840;2022-12-18T10:50:53;15.33;;;7.93;;
29954;SDS011;16812;51.168;6.840;2022-12-18T10:53:37;20.40;;;9.50;;
29954;SDS011;16812;51.168;6.840;2022-12-18T10:56:06;17.13;;;8.73;;
29954;SDS011;16812;51.168;6.840;2022-12-18T10:58:34;10.43;;;6.50;;
29954;SDS011;16812;51.168;6.840;2022-12-18T11:01:05;16.13;;;8.53;;
29954;SDS011;16812;51.168;6.840;2022-12-18T11:03:32;15.17;;;6.50;;
29954;SDS011;16812;51.168;6.840;2022-12-18T11:06:04;13.23;;;6.60;;
29954;SDS011;16812;51.168;6.840;2022-12-18T11:08:32;13.40;;;6.43;;
29954;SDS011;16812;51.168;6.840;2022-12-18T11:10:59;15.27;;;7.33;;
29954;SDS011;16812;51.168;6.840;2022-12-18T11:13:27;10.07;;;6.90;;
29954;SDS011;16812;51.168;6.840;2022-12-18T11:15:55;21.10;;;8.57;;
29954;SDS011;16812;51.168;6.840;2022-12-18T11:18:25;16.23;;;8.60;;
29954;SDS011;16812;51.168;6.840;2022-12-18T11:20:54;11.70;;;5.43;;
29954;SDS011;16812;51.168;6.840;2022-12-18T11:23:24;10.53;;;6.73;;
29954;SDS011;16812;51.168;6.840;2022-12-18T11:25:52;12.50;;;6.27;;
29954;SDS011;16812;51.168;6.840;2022-12-18T11:31:14;20.07;;;8.90;;
29954;SDS011;16812;51.168;6.840;2022-12-18T11:33:44;18.27;;;9.60;;
29954;SDS011;16812;51.168;6.840;2022-12-18T11:36:34;13.00;;;7.53;;
29954;SDS011;16812;51.168;6.840;2022-12-18T11:39:05;9.70;;;5.33;;
29954;SDS011;16812;51.168;6.840;2022-12-18T11:41:37;14.00;;;7.30;;
29954;SDS011;16812;51.168;6.840;2022-12-18T11:44:06;13.10;;;8.40;;
29954;SDS011;16812;51.168;6.840;2022-12-18T11:46:36;15.53;;;7.93;;
29954;SDS011;16812;51.168;6.840;2022-12-18T11:49:06;15.87;;;8.87;;
29954;SDS011;16812;51.168;6.840;2022-12-18T11:51:36;11.90;;;6.90;;
29954;SDS011;16812;51.168;6.840;2022-12-18T11:54:07;12.07;;;7.90;;
29954;SDS011;16812;51.168;6.840;2022-12-18T11:56:39;18.37;;;9.40;;
29954;SDS011;16812;51.168;6.840;2022-12-18T11:59:12;18.83;;;9.70;;
29954;SDS011;16812;51.168;6.840;2022-12-18T12:01:45;18.00;;;10.73;;
29954;SDS011;16812;51.168;6.840;2022-12-18T12:07:04;13.40;;;9.50;;
29954;SDS011;16812;51.168;6.840;2022-12-18T12:09:33;19.87;;;9.87;;
29954;SDS011;16812;51.168;6.840;2022-12-18T12:12:08;25.27;;;9.60;;
29954;SDS011;16812;51.168;6.840;2022-12-18T12:14:44;14.80;;;7.13;;
29954;SDS011;16812;51.168;6.840;2022-12-18T12:17:17;20.10;;;11.00;;
29954;SDS011;16812;51.168;6.840;2022-12-18T12:19:48;17.50;;;9.17;;
29954;SDS011;16812;51.168;6.840;2022-12-18T12:22:21;21.57;;;11.13;;
29954;SDS011;16812;51.168;6.840;2022-12-18T12:24:55;18.37;;;9.13;;
29954;SDS011;16812;51.168;6.840;2022-12-18T12:27:28;20.93;;;11.40;;
29954;SDS011;16812;51.168;6.840;2022-12-18T12:30:02;15.63;;;9.80;;
29954;SDS011;16812;51.168;6.840;2022-12-18T12:32:34;17.53;;;9.37;;
29954;SDS011;16812;51.168;6.840;2022-12-18T12:35:08;16.10;;;9.97;;
29954;SDS011;16812;51.168;6.840;2022-12-18T12:37:39;16.37;;;8.93;;
29954;SDS011;16812;51.168;6.840;2022-12-18T12:40:10;15.23;;;8.13;;
29954;SDS011;16812;51.168;6.840;2022-12-18T12:42:59;17.17;;;8.77;;
29954;SDS011;16812;51.168;6.840;2022-12-18T12:45:28;14.63;;;9.10;;
29954;SDS011;16812;51.168;6.840;2022-12-18T12:47:56;19.30;;;8.80;;
29954;SDS011;16812;51.168;6.840;2022-12-18T12:50:24;17.10;;;9.87;;
29954;SDS011;16812;51.168;6.840;2022-12-18T12:52:54;25.57;;;10.40;;
29954;SDS011;16812;51.168;6.840;2022-12-18T12:55:22;21.80;;;8.53;;
29954;SDS011;16812;51.168;6.840;2022-12-18T12:57:54;21.67;;;11.13;;
29954;SDS011;16812;51.168;6.840;2022-12-18T13:00:23;19.77;;;11.47;;
29954;SDS011;16812;51.168;6.840;2022-12-18T13:02:54;16.43;;;9.30;;
29954;SDS011;16812;51.168;6.840;2022-12-18T13:05:24;26.17;;;12.83;;
29954;SDS011;16812;51.168;6.840;2022-12-18T13:07:55;26.43;;;12.73;;
29954;SDS011;16812;51.168;6.840;2022-12-18T13:10:34;22.73;;;12.77;;
29954;SDS011;16812;51.168;6.840;2022-12-18T13:13:02;28.80;;;12.50;;
29954;SDS011;16812;51.168;6.840;2022-12-18T13:15:33;20.47;;;10.87;;
29954;SDS011;16812;51.168;6.840;2022-12-18T13:18:05;21.37;;;10.13;;
29954;SDS011;16812;51.168;6.840;2022-12-18T13:20:37;19.97;;;9.97;;
29954;SDS011;16812;51.168;6.840;2022-12-18T13:23:23;19.23;;;10.23;;
29954;SDS011;16812;51.168;6.840;2022-12-18T13:25:52;24.40;;;11.67;;
29954;SDS011;16812;51.168;6.840;2022-12-18T13:28:20;26.20;;;13.40;;
29954;SDS011;16812;51.168;6.840;2022-12-18T13:30:51;16.37;;;9.77;;
29954;SDS011;16812;51.168;6.840;2022-12-18T13:36:36;14.33;;;7.00;;
29954;SDS011;16812;51.168;6.840;2022-12-18T13:39:10;23.13;;;11.30;;
29954;SDS011;16812;51.168;6.840;2022-12-18T13:41:37;23.37;;;9.17;;
29954;SDS011;16812;51.168;6.840;2022-12-18T13:44:11;23.03;;;12.83;;
29954;SDS011;16812;51.168;6.840;2022-12-18T13:46:42;19.80;;;10.20;;
29954;SDS011;16812;51.168;6.840;2022-12-18T13:49:16;19.10;;;9.17;;
29954;SDS011;16812;51.168;6.840;2022-12-18T13:51:47;20.80;;;11.30;;
29954;SDS011;16812;51.168;6.840;2022-12-18T13:54:18;17.57;;;10.20;;
29954;SDS011;16812;51.168;6.840;2022-12-18T13:56:46;27.83;;;12.67;;
29954;SDS011;16812;51.168;6.840;2022-12-18T13:59:18;17.73;;;11.20;;
29954;SDS011;16812;51.168;6.840;2022-12-18T14:01:51;19.43;;;10.50;;
29954;SDS011;16812;51.168;6.840;2022-12-18T14:04:23;21.20;;;10.47;;
29954;SDS011;16812;51.168;6.840;2022-12-18T14:06:52;16.50;;;9.93;;
29954;SDS011;16812;51.168;6.840;2022-12-18T14:09:23;11.20;;;8.23;;
29954;SDS011;16812;51.168;6.840;2022-12-18T14:11:51;24.23;;;12.80;;
29954;SDS011;16812;51.168;6.840;2022-12-18T14:14:19;31.80;;;15.50;;
29954;SDS011;16812;51.168;6.840;2022-12-18T14:16:46;24.90;;;11.33;;
29954;SDS011;16812;51.168;6.840;2022-12-18T14:19:15;22.53;;;11.77;;
29954;SDS011;16812;51.168;6.840;2022-12-18T14:21:45;24.43;;;11.97;;
29954;SDS011;16812;51.168;6.840;2022-12-18T14:24:13;30.27;;;14.00;;
29954;SDS011;16812;51.168;6.840;2022-12-18T14:26:46;20.80;;;11.87;;
29954;SDS011;16812;51.168;6.840;2022-12-18T14:29:20;32.60;;;15.67;;
29954;SDS011;16812;51.168;6.840;2022-12-18T14:34:29;23.77;;;12.93;;
29954;SDS011;16812;51.168;6.840;2022-12-18T14:36:56;25.20;;;13.13;;
29954;SDS011;16812;51.168;6.840;2022-12-18T14:39:24;27.20;;;13.00;;
29954;SDS011;16812;51.168;6.840;2022-12-18T14:41:53;25.33;;;11.90;;
29954;SDS011;16812;51.168;6.840;2022-12-18T14:44:21;30.00;;;12.30;;
29954;SDS011;16812;51.168;6.840;2022-12-18T14:46:48;29.57;;;11.90;;
29954;SDS011;16812;51.168;6.840;2022-12-18T14:49:20;25.20;;;12.23;;
29954;SDS011;16812;51.168;6.840;2022-12-18T14:51:48;21.67;;;9.57;;
29954;SDS011;16812;51.168;6.840;2022-12-18T14:54:16;23.30;;;11.87;;
29954;SDS011;16812;51.168;6.840;2022-12-18T14:56:45;19.57;;;9.13;;
29954;SDS011;16812;51.168;6.840;2022-12-18T14:59:14;34.00;;;15.50;;